Time;durP1;ratioP1;P1;durP2;ratioP2;P2;SDS_P1;SDS_P2;PMS_P1;PMS_P2;Temp;Humidity;BMP_temperature;BMP_pressure;BME280_temperature;BME280_humidity;BME280_pressure;Samples;Min_cycle;Max_cycle;Signal;HPM_P1;HPM_P2
2021/09/04 00:01:42;;;;;;;22.93;13.27;;;13.80;99.90;;;;;;4393072;32;20168;-65
2021/09/04 00:04:09;;;;;;;26.13;15.20;;;13.70;99.90;;;;;;4393321;32;20181;-66
2021/09/04 00:06:36;;;;;;;23.23;15.17;;;13.70;99.90;;;;;;4390602;32;20177;-66
2021/09/04 00:09:03;;;;;;;21.33;12.90;;;13.70;99.90;;;;;;4392706;32;20568;-65
2021/09/04 00:11:35;;;;;;;28.20;14.70;;;13.60;99.90;;;;;;4377990;32;20179;-65
2021/09/04 00:14:01;;;;;;;22.60;13.53;;;13.60;99.90;;;;;;4379178;32;20561;-66
2021/09/04 00:16:28;;;;;;;24.73;14.00;;;13.60;99.90;;;;;;4391522;32;20160;-67
2021/09/04 00:18:55;;;;;;;27.87;12.97;;;13.60;99.90;;;;;;4392326;32;20181;-66
2021/09/04 00:21:22;;;;;;;22.87;12.10;;;13.60;99.90;;;;;;4392513;32;20216;-65
2021/09/04 00:23:49;;;;;;;22.07;11.67;;;13.60;99.90;;;;;;4392179;32;20166;-65
2021/09/04 00:26:22;;;;;;;25.03;13.40;;;13.60;99.90;;;;;;4391768;32;20563;-66
2021/09/04 00:28:50;;;;;;;21.53;12.50;;;13.50;99.90;;;;;;4392291;32;20178;-65
2021/09/04 00:31:17;;;;;;;17.83;11.97;;;13.50;99.90;;;;;;4391641;32;20152;-65
2021/09/04 00:33:44;;;;;;;19.70;13.17;;;13.40;99.90;;;;;;4393502;32;20193;-65
2021/09/04 00:36:11;;;;;;;27.40;20.13;;;13.40;99.90;;;;;;4391962;32;20174;-65
2021/09/04 00:38:38;;;;;;;27.07;22.90;;;13.40;99.90;;;;;;4390984;32;20184;-66
2021/09/04 00:41:10;;;;;;;25.00;18.77;;;13.40;99.90;;;;;;4392992;32;20151;-68
2021/09/04 00:43:37;;;;;;;27.43;20.43;;;13.40;99.90;;;;;;4392036;32;20214;-65
2021/09/04 00:46:10;;;;;;;24.00;18.50;;;13.40;99.90;;;;;;4391476;32;20622;-65
2021/09/04 00:48:38;;;;;;;26.90;18.67;;;13.40;99.90;;;;;;4392249;32;20217;-64
2021/09/04 00:51:05;;;;;;;29.20;18.40;;;13.30;99.90;;;;;;4392068;32;20633;-65
2021/09/04 00:53:32;;;;;;;26.17;18.93;;;13.40;99.90;;;;;;4392109;32;20162;-68
2021/09/04 00:56:00;;;;;;;25.40;17.60;;;13.30;99.90;;;;;;4391280;32;20175;-67
2021/09/04 00:58:27;;;;;;;24.03;18.87;;;13.30;99.90;;;;;;4391477;32;20585;-64
2021/09/04 01:00:55;;;;;;;26.27;21.60;;;13.30;99.90;;;;;;4391843;32;20160;-66
2021/09/04 01:03:23;;;;;;;24.20;18.53;;;13.30;99.90;;;;;;4392484;32;20191;-64
2021/09/04 01:05:51;;;;;;;25.57;19.77;;;13.30;99.90;;;;;;4395289;32;20180;-65
2021/09/04 01:08:18;;;;;;;27.77;19.13;;;13.30;99.90;;;;;;4397628;32;20163;-64
2021/09/04 01:10:45;;;;;;;26.63;19.63;;;13.30;99.90;;;;;;4391652;32;20159;-64
2021/09/04 01:13:12;;;;;;;27.57;19.20;;;13.30;99.90;;;;;;4392562;32;20210;-64
2021/09/04 01:15:39;;;;;;;25.40;19.20;;;13.20;99.90;;;;;;4391793;32;20195;-64
2021/09/04 01:18:06;;;;;;;25.43;20.10;;;13.20;99.90;;;;;;4376275;32;20188;-67
2021/09/04 01:20:35;;;;;;;26.03;19.93;;;13.20;99.90;;;;;;4389022;32;20152;-64
2021/09/04 01:23:03;;;;;;;28.70;20.80;;;13.20;99.90;;;;;;4405366;32;20212;-68
2021/09/04 01:25:32;;;;;;;29.53;20.90;;;13.20;99.90;;;;;;4406620;32;20166;-64
2021/09/04 01:28:02;;;;;;;23.63;20.63;;;13.10;99.90;;;;;;4406320;32;20156;-65
2021/09/04 01:30:30;;;;;;;27.70;20.53;;;13.10;99.90;;;;;;4405407;32;20153;-64
2021/09/04 01:33:00;;;;;;;26.93;22.00;;;13.00;99.90;;;;;;4406542;32;20607;-64
2021/09/04 01:35:28;;;;;;;22.97;20.47;;;13.00;99.90;;;;;;4391330;32;20195;-65
2021/09/04 01:37:55;;;;;;;28.17;21.70;;;13.00;99.90;;;;;;4391209;32;20162;-65
2021/09/04 01:40:22;;;;;;;22.43;20.00;;;12.90;99.90;;;;;;4391421;32;20160;-65
2021/09/04 01:42:50;;;;;;;24.37;21.67;;;12.90;99.90;;;;;;4391200;32;20160;-68
2021/09/04 01:45:19;;;;;;;25.97;20.53;;;12.90;99.90;;;;;;4405381;32;20187;-66
2021/09/04 01:47:47;;;;;;;27.23;21.73;;;12.90;99.90;;;;;;4407410;32;20152;-64
2021/09/04 01:50:14;;;;;;;28.23;22.07;;;12.90;99.90;;;;;;4403320;32;20167;-64
2021/09/04 01:52:42;;;;;;;25.43;20.37;;;12.90;99.90;;;;;;4406271;32;20164;-64
2021/09/04 01:55:12;;;;;;;28.53;22.20;;;12.90;99.90;;;;;;4394457;32;20247;-64
2021/09/04 01:57:39;;;;;;;25.73;21.57;;;12.90;99.90;;;;;;4391078;32;20136;-64
2021/09/04 02:00:08;;;;;;;23.40;20.70;;;12.90;99.90;;;;;;4391602;32;20163;-64
2021/09/04 02:02:37;;;;;;;22.87;20.47;;;12.80;99.90;;;;;;4392062;32;20145;-64
2021/09/04 02:05:05;;;;;;;26.23;21.67;;;12.80;99.90;;;;;;4275150;32;4126071;-64
2021/09/04 02:07:32;;;;;;;27.67;22.70;;;12.80;99.90;;;;;;4406001;32;20171;-64
2021/09/04 02:09:59;;;;;;;24.57;21.63;;;12.80;99.90;;;;;;4404054;32;20190;-65
2021/09/04 02:12:26;;;;;;;26.80;23.23;;;12.80;99.90;;;;;;4405662;32;20152;-64
2021/09/04 02:14:53;;;;;;;31.17;22.60;;;12.80;99.90;;;;;;4399312;32;20471;-65
2021/09/04 02:17:20;;;;;;;31.17;22.60;;;12.80;99.90;;;;;;4390749;32;20183;-65
2021/09/04 02:19:50;;;;;;;25.80;21.37;;;12.80;99.90;;;;;;4391687;32;20180;-65
2021/09/04 02:22:17;;;;;;;27.87;23.33;;;12.80;99.90;;;;;;4390545;32;20187;-68
2021/09/04 02:24:44;;;;;;;29.00;25.40;;;12.70;99.90;;;;;;4397349;32;20178;-65
2021/09/04 02:27:12;;;;;;;32.33;24.73;;;12.80;99.90;;;;;;4405793;32;20548;-65
2021/09/04 02:29:39;;;;;;;26.87;23.20;;;12.70;99.90;;;;;;4398760;32;20199;-64
2021/09/04 02:32:06;;;;;;;26.10;22.43;;;12.70;99.90;;;;;;4384499;32;20199;-65
2021/09/04 02:34:48;;;;;;;29.37;22.23;;;12.70;99.90;;;;;;4374304;32;20161;-68
2021/09/04 02:37:32;;;;;;;26.93;24.23;;;12.70;99.90;;;;;;4376831;32;20186;-65
2021/09/04 02:39:59;;;;;;;27.60;23.23;;;12.70;99.90;;;;;;4373259;32;20204;-68
2021/09/04 02:42:26;;;;;;;28.37;23.73;;;12.70;99.90;;;;;;4372256;32;20168;-64
2021/09/04 02:44:53;;;;;;;26.23;23.40;;;12.60;99.90;;;;;;4380129;32;20210;-65
2021/09/04 02:47:23;;;;;;;28.33;24.93;;;12.60;99.90;;;;;;4382213;32;20174;-65
2021/09/04 02:49:50;;;;;;;30.80;26.40;;;12.60;99.90;;;;;;4389777;32;20152;-64
2021/09/04 02:52:20;;;;;;;31.00;25.50;;;12.60;99.90;;;;;;4407152;32;20187;-65
2021/09/04 02:54:46;;;;;;;29.80;26.73;;;12.60;99.90;;;;;;4399116;32;20519;-65
2021/09/04 02:57:13;;;;;;;32.47;27.03;;;12.70;99.90;;;;;;4391518;32;20155;-67
2021/09/04 02:59:42;;;;;;;28.17;24.93;;;12.90;99.90;;;;;;4391096;32;20164;-65
2021/09/04 03:02:13;;;;;;;31.67;25.27;;;12.90;99.90;;;;;;4390264;32;20160;-65
2021/09/04 03:04:40;;;;;;;30.63;26.43;;;13.00;99.90;;;;;;4396251;32;20511;-64
2021/09/04 03:07:07;;;;;;;36.77;26.97;;;13.00;99.90;;;;;;4405214;32;20231;-65
2021/09/04 03:09:35;;;;;;;35.00;31.33;;;13.10;99.90;;;;;;4402036;32;20168;-64
2021/09/04 03:12:03;;;;;;;29.77;26.67;;;13.10;99.90;;;;;;4390539;32;20445;-64
2021/09/04 03:14:32;;;;;;;31.03;27.30;;;13.10;99.90;;;;;;4392694;32;20177;-66
2021/09/04 03:16:59;;;;;;;31.60;27.20;;;13.10;99.90;;;;;;4405548;32;20144;-65
2021/09/04 03:19:27;;;;;;;31.50;27.37;;;13.10;99.90;;;;;;4404590;32;20152;-64
2021/09/04 03:21:57;;;;;;;30.57;26.47;;;13.20;99.90;;;;;;4390256;32;20175;-66
2021/09/04 03:24:24;;;;;;;34.93;31.17;;;13.20;99.90;;;;;;4393527;32;20194;-67
2021/09/04 03:26:52;;;;;;;33.77;27.77;;;13.20;99.90;;;;;;4408369;32;20491;-66
2021/09/04 03:29:19;;;;;;;33.67;29.53;;;13.20;99.90;;;;;;4408164;32;20190;-67
2021/09/04 03:31:46;;;;;;;34.47;29.67;;;13.20;99.90;;;;;;4393431;32;20178;-64
2021/09/04 03:34:13;;;;;;;36.07;28.43;;;13.20;99.90;;;;;;4408485;32;20476;-65
2021/09/04 03:36:43;;;;;;;34.07;29.50;;;13.30;99.90;;;;;;4394638;32;20160;-65
2021/09/04 03:39:10;;;;;;;37.03;33.17;;;13.30;99.90;;;;;;4392777;32;20455;-66
2021/09/04 03:41:37;;;;;;;30.67;27.37;;;13.40;99.90;;;;;;4403986;32;20174;-64
2021/09/04 03:44:05;;;;;;;33.63;29.20;;;13.40;99.90;;;;;;4408043;32;20170;-68
2021/09/04 03:46:32;;;;;;;33.10;29.40;;;13.40;99.90;;;;;;4406547;32;20172;-64
2021/09/04 03:49:02;;;;;;;36.83;31.17;;;13.50;99.90;;;;;;4408161;32;20477;-66
2021/09/04 03:51:29;;;;;;;35.07;30.60;;;13.50;99.90;;;;;;4406464;32;20160;-66
2021/09/04 03:53:59;;;;;;;36.10;29.60;;;13.50;99.90;;;;;;4409193;32;20160;-65
2021/09/04 03:56:27;;;;;;;34.47;29.83;;;13.50;99.90;;;;;;4395062;32;20162;-64
2021/09/04 03:58:54;;;;;;;32.73;29.10;;;13.50;99.90;;;;;;4393550;32;20156;-64
2021/09/04 04:01:22;;;;;;;32.53;29.07;;;13.50;99.90;;;;;;4394944;32;20180;-64
2021/09/04 04:03:49;;;;;;;33.87;30.33;;;13.50;99.90;;;;;;4393288;32;20449;-68
2021/09/04 04:06:16;;;;;;;35.80;31.93;;;13.50;99.90;;;;;;4404837;32;20180;-64
2021/09/04 04:08:43;;;;;;;33.07;29.50;;;13.50;99.90;;;;;;4407548;32;20572;-66
2021/09/04 04:11:12;;;;;;;33.13;29.63;;;13.50;99.90;;;;;;4405599;32;20549;-63
2021/09/04 04:13:40;;;;;;;39.40;31.90;;;13.50;99.90;;;;;;4407202;32;20187;-66
2021/09/04 04:16:07;;;;;;;36.40;30.73;;;13.60;99.90;;;;;;4395227;32;20156;-64
2021/09/04 04:18:36;;;;;;;38.03;31.17;;;13.60;99.90;;;;;;4392550;32;20170;-64
2021/09/04 04:21:03;;;;;;;37.77;30.57;;;13.60;99.90;;;;;;4406410;32;20187;-64
2021/09/04 04:23:31;;;;;;;34.47;30.20;;;13.60;99.90;;;;;;4403734;32;20157;-64
2021/09/04 04:25:58;;;;;;;37.40;30.20;;;13.60;99.90;;;;;;4392333;32;20147;-66
2021/09/04 04:28:25;;;;;;;34.03;30.37;;;13.60;99.90;;;;;;4392792;32;20171;-64
2021/09/04 04:30:52;;;;;;;32.63;28.77;;;13.60;99.90;;;;;;4392175;32;20177;-67
2021/09/04 04:33:19;;;;;;;33.87;27.80;;;13.70;99.90;;;;;;4391313;32;20167;-65
2021/09/04 04:35:47;;;;;;;32.80;29.40;;;13.60;99.90;;;;;;4391957;32;20442;-64
2021/09/04 04:38:17;;;;;;;37.90;32.43;;;13.60;99.90;;;;;;4390489;32;20178;-64
2021/09/04 04:40:47;;;;;;;34.63;30.90;;;13.60;99.90;;;;;;4399680;32;20176;-64
2021/09/04 04:43:14;;;;;;;32.73;26.33;;;13.60;99.90;;;;;;4405367;32;20223;-66
2021/09/04 04:45:41;;;;;;;31.47;25.70;;;13.70;99.90;;;;;;4392168;32;20172;-65
2021/09/04 04:48:08;;;;;;;29.17;26.07;;;13.70;99.90;;;;;;4392599;32;20201;-64
2021/09/04 04:50:35;;;;;;;29.50;26.37;;;13.70;99.90;;;;;;4392874;32;20164;-63
2021/09/04 04:53:03;;;;;;;34.67;26.60;;;13.80;99.90;;;;;;4403033;32;20168;-63
2021/09/04 04:55:30;;;;;;;33.83;30.03;;;13.80;99.90;;;;;;4408113;32;20170;-64
2021/09/04 04:57:57;;;;;;;31.53;28.13;;;13.80;99.90;;;;;;4405680;32;20198;-66
2021/09/04 05:00:24;;;;;;;31.43;26.07;;;13.80;99.90;;;;;;4404028;32;20175;-66
2021/09/04 05:02:51;;;;;;;29.43;26.47;;;13.80;99.90;;;;;;4407341;32;20152;-66
2021/09/04 05:05:18;;;;;;;30.60;27.50;;;13.80;99.90;;;;;;4398567;32;20484;-64
2021/09/04 05:07:45;;;;;;;30.53;26.30;;;13.80;99.90;;;;;;4391467;32;20166;-64
2021/09/04 05:10:13;;;;;;;28.20;23.40;;;13.80;99.90;;;;;;4391114;32;20307;-65
2021/09/04 05:12:40;;;;;;;28.77;25.43;;;13.80;99.90;;;;;;4392149;32;20171;-64
2021/09/04 05:15:08;;;;;;;28.87;25.73;;;13.90;99.90;;;;;;4391452;32;20164;-64
2021/09/04 05:17:35;;;;;;;29.50;26.23;;;13.90;99.90;;;;;;4391933;32;20582;-64
2021/09/04 05:20:02;;;;;;;29.13;26.13;;;13.90;99.90;;;;;;4391030;32;20216;-64
2021/09/04 05:22:30;;;;;;;31.43;27.40;;;13.90;99.90;;;;;;4391339;32;20154;-64
2021/09/04 05:24:58;;;;;;;31.03;26.33;;;13.90;99.90;;;;;;4391224;32;20190;-67
2021/09/04 05:27:26;;;;;;;31.67;26.70;;;13.80;99.90;;;;;;4391473;32;20573;-65
2021/09/04 05:29:53;;;;;;;31.43;26.03;;;13.80;99.90;;;;;;4390576;32;20171;-65
2021/09/04 05:32:23;;;;;;;31.07;27.17;;;13.80;99.90;;;;;;4391510;32;20146;-66
2021/09/04 05:34:50;;;;;;;30.50;26.67;;;13.90;99.90;;;;;;4390755;32;20160;-65
2021/09/04 05:37:18;;;;;;;32.30;26.70;;;13.90;99.90;;;;;;4391002;32;20178;-64
2021/09/04 05:39:45;;;;;;;28.07;24.27;;;13.90;99.90;;;;;;4391135;32;20176;-64
2021/09/04 05:42:12;;;;;;;29.33;25.50;;;13.90;99.90;;;;;;4390561;32;20172;-69
2021/09/04 05:44:42;;;;;;;29.50;24.47;;;14.00;99.90;;;;;;4391069;32;20172;-65
2021/09/04 05:47:09;;;;;;;28.43;25.37;;;14.00;99.90;;;;;;4390271;32;20156;-65
2021/09/04 05:49:37;;;;;;;29.27;25.73;;;14.00;99.90;;;;;;4394428;32;20176;-64
2021/09/04 05:52:05;;;;;;;28.03;25.03;;;14.00;99.90;;;;;;4390804;32;20217;-65
2021/09/04 05:54:32;;;;;;;29.60;26.17;;;14.00;99.90;;;;;;4390076;32;20246;-65
2021/09/04 05:56:58;;;;;;;29.40;24.57;;;13.90;99.90;;;;;;4390325;32;20231;-65
2021/09/04 05:59:25;;;;;;;30.53;26.23;;;13.90;99.90;;;;;;4384436;32;20682;-65
2021/09/04 06:01:54;;;;;;;35.60;28.23;;;14.00;99.90;;;;;;4383444;32;20164;-65
2021/09/04 06:04:21;;;;;;;31.87;27.30;;;14.10;99.90;;;;;;4379250;32;20600;-65
2021/09/04 06:06:49;;;;;;;30.37;26.97;;;14.10;99.90;;;;;;4388214;32;20219;-65
2021/09/04 06:09:16;;;;;;;31.90;26.07;;;14.10;99.90;;;;;;4387052;32;21906;-65
2021/09/04 06:11:43;;;;;;;31.03;27.53;;;14.00;99.90;;;;;;4385238;32;20171;-65
2021/09/04 06:14:10;;;;;;;33.30;26.03;;;14.00;99.90;;;;;;4387434;32;20313;-65
2021/09/04 06:16:37;;;;;;;33.73;26.70;;;14.10;99.90;;;;;;4388227;32;20156;-65
2021/09/04 06:19:05;;;;;;;29.87;26.93;;;14.20;99.90;;;;;;4384195;32;20524;-65
2021/09/04 06:21:35;;;;;;;29.70;24.93;;;14.20;99.90;;;;;;4383403;32;20161;-65
2021/09/04 06:24:02;;;;;;;30.70;27.13;;;14.20;99.90;;;;;;4386340;32;20223;-65
2021/09/04 06:26:28;;;;;;;28.23;25.20;;;14.20;99.90;;;;;;4385933;32;20227;-65
2021/09/04 06:28:55;;;;;;;30.73;27.53;;;14.20;99.90;;;;;;4386008;32;20582;-69
2021/09/04 06:31:22;;;;;;;32.70;27.77;;;14.10;99.90;;;;;;4386057;32;20263;-65
2021/09/04 06:33:53;;;;;;;28.13;25.30;;;14.10;99.90;;;;;;4385568;32;20178;-65
2021/09/04 06:36:21;;;;;;;30.10;26.90;;;14.20;99.90;;;;;;4382949;32;20555;-65
2021/09/04 06:38:52;;;;;;;28.27;25.30;;;14.20;99.90;;;;;;4385645;32;20259;-65
2021/09/04 06:41:19;;;;;;;30.67;26.87;;;14.20;99.90;;;;;;4386128;32;20201;-64
2021/09/04 06:43:46;;;;;;;29.27;25.97;;;14.30;99.90;;;;;;4386885;32;20227;-64
2021/09/04 06:46:13;;;;;;;28.73;25.73;;;14.30;99.90;;;;;;4384154;32;20176;-65
2021/09/04 06:48:40;;;;;;;30.90;26.57;;;14.40;99.90;;;;;;4386170;32;20182;-64
2021/09/04 06:51:06;;;;;;;29.53;26.47;;;14.50;99.90;;;;;;4385660;32;20601;-63
2021/09/04 06:53:35;;;;;;;29.70;26.73;;;14.60;99.90;;;;;;4388283;32;20164;-64
2021/09/04 06:56:01;;;;;;;29.23;24.77;;;14.60;99.90;;;;;;4387803;32;20206;-64
2021/09/04 06:58:31;;;;;;;26.63;23.93;;;14.70;99.90;;;;;;4388890;32;20213;-64
2021/09/04 07:01:00;;;;;;;29.23;26.03;;;14.80;99.90;;;;;;4391437;32;20203;-64
2021/09/04 07:03:32;;;;;;;28.00;24.97;;;14.80;99.90;;;;;;4391032;32;20240;-64
2021/09/04 07:05:59;;;;;;;32.40;23.17;;;14.80;99.90;;;;;;4390050;32;20156;-64
2021/09/04 07:08:26;;;;;;;29.37;24.40;;;14.90;99.90;;;;;;4392851;32;20182;-65
2021/09/04 07:10:54;;;;;;;34.30;25.77;;;15.00;99.90;;;;;;4392608;32;20544;-64
2021/09/04 07:13:21;;;;;;;26.13;23.33;;;15.10;99.90;;;;;;4388220;32;20163;-64
2021/09/04 07:15:48;;;;;;;26.77;23.97;;;15.20;99.90;;;;;;4392895;32;20221;-64
2021/09/04 07:18:24;;;;;;;26.40;22.83;;;15.30;99.90;;;;;;4392715;32;20220;-64
2021/09/04 07:20:51;;;;;;;26.10;22.37;;;15.40;99.90;;;;;;4393625;32;20182;-64
2021/09/04 07:23:18;;;;;;;26.73;23.97;;;15.40;99.90;;;;;;4392893;32;20170;-64
2021/09/04 07:25:45;;;;;;;25.63;21.93;;;15.50;99.90;;;;;;4392641;32;20577;-64
2021/09/04 07:28:13;;;;;;;28.77;23.17;;;15.50;99.90;;;;;;4390957;32;20163;-64
2021/09/04 07:30:40;;;;;;;24.70;22.00;;;15.40;99.90;;;;;;4392508;32;20215;-64
2021/09/04 07:33:10;;;;;;;24.53;21.93;;;15.50;99.90;;;;;;4392792;32;20690;-65
2021/09/04 07:35:36;;;;;;;23.03;20.73;;;15.50;99.90;;;;;;4393115;32;20481;-63
2021/09/04 07:38:04;;;;;;;23.23;20.77;;;15.60;99.90;;;;;;4392837;32;20607;-64
2021/09/04 07:40:31;;;;;;;21.87;19.70;;;15.70;99.90;;;;;;4391833;32;20187;-63
2021/09/04 07:42:59;;;;;;;21.70;19.40;;;15.70;99.90;;;;;;4392661;32;20199;-65
2021/09/04 07:45:29;;;;;;;21.80;19.43;;;15.70;99.90;;;;;;4390359;32;20186;-62
2021/09/04 07:47:56;;;;;;;23.70;19.73;;;15.90;99.90;;;;;;4390136;32;20195;-66
2021/09/04 07:50:25;;;;;;;24.43;21.07;;;16.00;99.90;;;;;;4391582;32;20160;-64
2021/09/04 07:52:52;;;;;;;23.07;20.73;;;16.10;99.90;;;;;;4392267;32;20234;-64
2021/09/04 07:55:19;;;;;;;24.47;20.53;;;16.30;99.90;;;;;;4391800;32;20175;-63
2021/09/04 07:57:46;;;;;;;22.10;19.97;;;16.30;99.90;;;;;;4391537;32;20588;-64
2021/09/04 08:00:14;;;;;;;22.37;19.90;;;16.40;99.90;;;;;;4392331;32;20465;-67
2021/09/04 08:02:43;;;;;;;23.33;20.13;;;16.30;99.90;;;;;;4389981;32;20168;-64
2021/09/04 08:05:11;;;;;;;20.83;18.63;;;16.40;99.90;;;;;;4391278;32;20178;-63
2021/09/04 08:07:38;;;;;;;23.27;20.93;;;16.50;99.90;;;;;;4390920;32;20619;-62
2021/09/04 08:10:06;;;;;;;22.60;19.37;;;16.60;99.90;;;;;;4391683;32;20524;-66
2021/09/04 08:12:33;;;;;;;24.53;22.13;;;16.70;99.90;;;;;;4391190;32;20246;-63
2021/09/04 08:15:03;;;;;;;20.57;18.70;;;16.60;99.90;;;;;;4391723;32;20176;-63
2021/09/04 08:17:30;;;;;;;19.77;17.80;;;16.80;99.90;;;;;;4392938;32;20532;-64
2021/09/04 08:19:58;;;;;;;22.87;20.47;;;17.30;99.90;;;;;;4392239;32;20573;-62
2021/09/04 08:22:25;;;;;;;20.73;18.70;;;17.80;99.90;;;;;;4392425;32;20215;-65
2021/09/04 08:24:53;;;;;;;22.70;17.87;;;18.20;99.90;;;;;;4391663;32;20152;-63
2021/09/04 08:27:22;;;;;;;19.27;15.97;;;18.40;99.90;;;;;;4391642;32;20178;-66
2021/09/04 08:29:48;;;;;;;20.13;17.10;;;18.20;99.90;;;;;;4389606;32;20188;-64
2021/09/04 08:32:15;;;;;;;18.40;15.53;;;18.00;99.90;;;;;;4391568;32;20156;-65
2021/09/04 08:34:42;;;;;;;17.73;15.83;;;18.00;99.90;;;;;;4391537;32;20164;-65
2021/09/04 08:37:10;;;;;;;18.00;16.10;;;18.10;99.90;;;;;;4390585;32;20604;-65
2021/09/04 08:39:37;;;;;;;19.90;15.23;;;18.30;99.90;;;;;;4391840;32;20187;-65
2021/09/04 08:42:04;;;;;;;20.07;16.57;;;18.40;99.90;;;;;;4391486;32;20164;-66
2021/09/04 08:44:31;;;;;;;17.77;15.80;;;18.50;99.90;;;;;;4392146;32;20589;-64
2021/09/04 08:46:59;;;;;;;16.03;14.23;;;18.20;99.90;;;;;;4389937;32;20219;-64
2021/09/04 08:49:27;;;;;;;20.87;15.67;;;18.30;99.90;;;;;;4392704;32;20160;-66
2021/09/04 08:51:54;;;;;;;19.07;15.83;;;18.10;99.90;;;;;;4391244;32;20160;-63
2021/09/04 08:54:22;;;;;;;16.40;14.70;;;18.00;99.90;;;;;;4390793;32;20291;-63
2021/09/04 08:56:49;;;;;;;16.63;15.00;;;17.70;99.90;;;;;;4385864;32;20160;-68
2021/09/04 08:59:16;;;;;;;19.10;15.20;;;17.60;99.90;;;;;;4375629;32;20627;-67
2021/09/04 09:01:45;;;;;;;20.20;16.37;;;17.70;99.90;;;;;;4377265;32;20270;-67
2021/09/04 09:04:27;;;;;;;16.67;14.93;;;18.20;99.90;;;;;;4375210;32;20252;-67
2021/09/04 09:06:54;;;;;;;18.30;16.50;;;18.20;99.90;;;;;;4382337;32;20225;-67
2021/09/04 09:09:26;;;;;;;16.40;14.70;;;17.90;99.90;;;;;;4380154;32;20199;-66
2021/09/04 09:11:54;;;;;;;17.57;15.77;;;17.50;99.90;;;;;;4369966;32;20211;-64
2021/09/04 09:14:23;;;;;;;21.10;16.93;;;17.40;99.90;;;;;;4377815;32;20558;-66
2021/09/04 09:16:54;;;;;;;18.73;16.80;;;17.30;99.90;;;;;;4377268;32;20191;-65
2021/09/04 09:19:23;;;;;;;21.27;16.20;;;17.40;99.90;;;;;;4389202;32;20638;-66
2021/09/04 09:21:50;;;;;;;19.27;15.43;;;17.80;99.90;;;;;;4387599;32;20175;-67
2021/09/04 09:24:18;;;;;;;20.10;16.40;;;18.10;99.90;;;;;;4392587;32;20592;-64
2021/09/04 09:26:52;;;;;;;17.87;14.57;;;18.40;99.90;;;;;;4390585;32;20210;-67
2021/09/04 09:29:21;;;;;;;18.40;15.70;;;18.50;99.90;;;;;;4391022;32;20264;-66
2021/09/04 09:31:48;;;;;;;20.60;16.03;;;18.50;99.90;;;;;;4390553;32;20157;-64
2021/09/04 09:34:17;;;;;;;20.43;16.03;;;18.80;99.90;;;;;;4391675;32;20168;-64
2021/09/04 09:36:52;;;;;;;18.27;15.73;;;19.10;99.90;;;;;;4391203;32;20554;-66
2021/09/04 09:39:19;;;;;;;18.10;16.00;;;19.50;99.90;;;;;;4391109;32;20529;-65
2021/09/04 09:41:48;;;;;;;16.80;15.13;;;19.60;99.90;;;;;;4392156;32;20190;-66
2021/09/04 09:44:22;;;;;;;22.87;16.13;;;19.50;99.90;;;;;;4392107;32;20254;-66
2021/09/04 09:46:51;;;;;;;17.23;15.43;;;19.40;99.90;;;;;;4389443;32;20237;-65
2021/09/04 09:49:18;;;;;;;16.07;14.47;;;19.30;99.90;;;;;;4390593;32;20172;-63
2021/09/04 09:51:46;;;;;;;17.03;14.93;;;19.20;99.90;;;;;;4391157;32;20194;-64
2021/09/04 09:54:14;;;;;;;21.70;16.63;;;19.50;99.90;;;;;;4390844;32;20216;-65
2021/09/04 09:56:41;;;;;;;16.57;14.83;;;19.80;99.90;;;;;;4390337;32;20482;-66
2021/09/04 09:59:12;;;;;;;16.33;14.73;;;20.20;99.90;;;;;;4390187;32;20165;-66
2021/09/04 10:01:42;;;;;;;17.63;13.57;;;20.60;99.90;;;;;;4390445;32;20522;-67
2021/09/04 10:04:12;;;;;;;20.20;15.37;;;21.30;99.90;;;;;;4390088;32;20203;-67
2021/09/04 10:06:39;;;;;;;19.13;14.27;;;21.50;99.90;;;;;;4394477;32;20243;-64
2021/09/04 10:09:07;;;;;;;15.60;13.47;;;21.30;99.90;;;;;;4405757;32;20148;-66
2021/09/04 10:11:37;;;;;;;19.93;14.93;;;21.00;99.90;;;;;;4406962;32;20156;-66
2021/09/04 10:14:06;;;;;;;19.20;15.03;;;20.40;99.90;;;;;;4406290;32;20224;-64
2021/09/04 10:16:36;;;;;;;17.00;15.07;;;19.90;99.90;;;;;;4406661;32;20487;-68
2021/09/04 10:19:08;;;;;;;16.83;15.03;;;19.70;99.90;;;;;;4407047;32;20514;-67
2021/09/04 10:21:40;;;;;;;15.17;13.63;;;19.70;99.90;;;;;;4406722;32;20601;-68
2021/09/04 10:24:08;;;;;;;16.57;13.83;;;19.60;99.90;;;;;;4407278;32;20524;-67
2021/09/04 10:26:37;;;;;;;16.27;14.57;;;19.60;99.90;;;;;;4405460;32;20167;-67
2021/09/04 10:29:08;;;;;;;17.20;14.40;;;19.70;99.90;;;;;;4376654;32;20592;-67
2021/09/04 10:32:04;;;;;;;17.67;14.63;;;19.70;99.90;;;;;;4381171;32;20536;-67
2021/09/04 10:34:35;;;;;;;18.33;14.30;;;19.60;99.90;;;;;;4405660;32;20160;-66
2021/09/04 10:37:06;;;;;;;18.10;16.17;;;19.50;99.90;;;;;;4394406;32;20157;-64
2021/09/04 10:39:54;;;;;;;16.60;14.40;;;19.50;99.90;;;;;;4382823;32;20186;-67
2021/09/04 10:42:26;;;;;;;19.03;14.97;;;19.50;99.90;;;;;;4383989;32;20275;-66
2021/09/04 10:44:58;;;;;;;17.83;14.43;;;19.60;99.90;;;;;;4387329;32;20176;-67
2021/09/04 10:47:24;;;;;;;19.03;15.30;;;19.80;99.90;;;;;;4384205;32;20206;-65
2021/09/04 10:49:56;;;;;;;17.03;14.63;;;19.80;99.90;;;;;;4385391;32;20182;-67
2021/09/04 10:53:00;;;;;;;18.57;15.40;;;19.80;99.90;;;;;;4389993;32;20642;-67
2021/09/04 10:55:32;;;;;;;16.63;14.07;;;19.80;99.90;;;;;;4390762;32;20170;-68
2021/09/04 10:58:10;;;;;;;18.70;15.67;;;19.90;99.90;;;;;;4390248;32;20190;-66
2021/09/04 11:00:40;;;;;;;17.00;15.33;;;19.80;99.90;;;;;;4390274;32;20186;-64
2021/09/04 11:03:08;;;;;;;16.27;14.23;;;19.80;99.90;;;;;;4390331;32;20160;-66
2021/09/04 11:05:52;;;;;;;20.20;15.17;;;19.80;99.90;;;;;;4313142;32;20177;-64
2021/09/04 11:08:44;;;;;;;17.03;15.13;;;19.80;99.90;;;;;;4315712;33;20495;-67
2021/09/04 11:11:28;;;;;;;15.33;13.30;;;19.90;99.90;;;;;;4259204;33;20171;-69
2021/09/04 11:13:56;;;;;;;15.90;14.40;;;19.90;99.90;;;;;;4273037;33;20174;-65
2021/09/04 11:16:35;;;;;;;16.00;13.33;;;19.90;99.90;;;;;;4282935;33;20186;-65
2021/09/04 11:19:04;;;;;;;15.57;13.87;;;20.00;99.90;;;;;;4254999;33;20201;-64
2021/09/04 11:21:34;;;;;;;15.53;12.57;;;20.20;99.90;;;;;;4254487;33;20226;-68
2021/09/04 11:24:01;;;;;;;14.63;13.10;;;20.20;99.90;;;;;;4256857;33;20197;-67
2021/09/04 11:26:29;;;;;;;15.97;13.30;;;20.20;99.90;;;;;;4264679;33;20275;-65
2021/09/04 11:28:57;;;;;;;16.67;12.87;;;20.30;99.90;;;;;;4258927;33;20250;-65
2021/09/04 11:31:24;;;;;;;15.40;13.90;;;20.20;99.90;;;;;;4262231;33;20201;-68
2021/09/04 11:33:53;;;;;;;16.23;13.27;;;20.10;99.90;;;;;;4259195;33;20222;-65
2021/09/04 11:36:32;;;;;;;14.57;13.27;;;20.20;99.90;;;;;;4260030;33;20202;-67
2021/09/04 11:39:00;;;;;;;14.63;13.27;;;20.20;99.90;;;;;;4260506;33;20193;-69
2021/09/04 11:41:27;;;;;;;14.37;12.67;;;20.20;99.90;;;;;;4261759;33;20335;-68
2021/09/04 11:43:54;;;;;;;15.60;14.07;;;20.30;99.90;;;;;;4258868;33;20222;-68
2021/09/04 11:46:26;;;;;;;14.13;12.70;;;20.40;99.90;;;;;;4261264;33;20167;-67
2021/09/04 11:48:56;;;;;;;15.03;12.60;;;20.40;99.90;;;;;;4302900;33;20184;-67
2021/09/04 11:52:18;;;;;;;13.93;12.37;;;20.40;99.90;;;;;;4398132;32;1834560;-70
2021/09/04 11:54:44;;;;;;;16.77;13.33;;;20.40;99.90;;;;;;4457164;32;20173;-65
2021/09/04 11:57:27;;;;;;;12.57;11.37;;;20.40;99.90;;;;;;4456073;32;20567;-67
2021/09/04 12:00:01;;;;;;;12.67;11.40;;;20.60;99.90;;;;;;4453351;32;20197;-68
2021/09/04 12:02:29;;;;;;;16.73;12.20;;;20.70;99.90;;;;;;4453493;32;20170;-67
2021/09/04 12:04:56;;;;;;;14.23;11.37;;;20.90;99.90;;;;;;4456684;32;20222;-68
2021/09/04 12:07:31;;;;;;;15.90;12.33;;;20.80;99.90;;;;;;4452311;32;20607;-65
2021/09/04 12:10:01;;;;;;;15.90;12.77;;;20.80;99.90;;;;;;4454807;32;20216;-69
2021/09/04 12:12:29;;;;;;;15.13;12.17;;;20.80;99.90;;;;;;4456310;32;20188;-69
2021/09/04 12:14:57;;;;;;;12.67;11.37;;;20.90;99.90;;;;;;4454290;32;20225;-66
2021/09/04 12:17:25;;;;;;;16.93;12.37;;;20.90;99.90;;;;;;4458886;32;20167;-67
2021/09/04 12:19:52;;;;;;;16.07;11.60;;;21.00;99.90;;;;;;4454448;32;20515;-67
2021/09/04 12:22:30;;;;;;;12.30;10.97;;;21.00;99.90;;;;;;4460252;32;20159;-69
2021/09/04 12:24:58;;;;;;;15.57;12.83;;;21.10;99.90;;;;;;4459640;32;20151;-65
2021/09/04 12:27:37;;;;;;;12.27;11.00;;;21.10;99.90;;;;;;4455181;32;20193;-67
2021/09/04 12:30:04;;;;;;;13.30;12.00;;;21.10;99.90;;;;;;4453105;32;20173;-67
2021/09/04 12:32:34;;;;;;;11.90;10.70;;;21.00;99.90;;;;;;4451901;32;20221;-67
2021/09/04 12:35:01;;;;;;;13.10;11.63;;;21.00;99.90;;;;;;4454736;32;20178;-66